Time;durP1;ratioP1;P1;durP2;ratioP2;P2;SDS_P1;SDS_P2;PMS_P1;PMS_P2;Temp;Humidity;BMP_temperature;BMP_pressure;BME280_temperature;BME280_humidity;BME280_pressure;Samples;Min_cycle;Max_cycle;Signal;HPM_P1;HPM_P2
2021/06/06 00:00:19;;;;;;;0.50;0.50;;;;;;;14.80;87.43;97395.22;29395;197;63019;-65
2021/06/06 00:00:54;;;;;;;0.50;0.50;;;;;;;14.78;87.84;97394.72;29395;227;63015;-66
2021/06/06 00:01:31;;;;;;;0.50;0.50;;;;;;;14.74;87.76;97392.59;29395;221;63026;-64
2021/06/06 00:02:06;;;;;;;0.50;0.50;;;;;;;14.71;88.38;97393.22;29395;197;63005;-65
2021/06/06 00:02:38;;;;;;;0.50;0.50;;;;;;;14.69;88.31;97389.97;29395;266;63009;-65
2021/06/06 00:03:19;;;;;;;0.50;0.50;;;;;;;14.71;88.63;97392.41;29395;208;63005;-64
2021/06/06 00:03:53;;;;;;;0.50;0.50;;;;;;;14.74;88.00;97398.06;29416;239;64013;-67
2021/06/06 00:04:25;;;;;;;0.50;0.50;;;;;;;14.73;87.94;97393.72;29395;196;63010;-66
2021/06/06 00:04:56;;;;;;;0.50;0.50;;;;;;;14.73;87.58;97390.16;29395;249;63009;-65
2021/06/06 00:05:53;;;;;;;0.50;0.50;;;;;;;14.71;88.13;97393.22;29395;263;63004;-65
2021/06/06 00:06:33;;;;;;;0.50;0.50;;;;;;;14.70;88.29;97390.78;29395;208;63020;-66
2021/06/06 00:07:05;;;;;;;0.50;0.50;;;;;;;14.68;88.43;97388.34;29416;294;64008;-66
2021/06/06 00:07:37;;;;;;;0.50;0.50;;;;;;;14.67;88.35;97392.19;29395;219;63009;-63
2021/06/06 00:08:08;;;;;;;0.50;0.50;;;;;;;14.65;88.79;97393.63;29395;246;63005;-66
2021/06/06 00:08:40;;;;;;;0.50;0.50;;;;;;;14.63;88.40;97391.19;29395;210;63009;-64
2021/06/06 00:09:15;;;;;;;0.50;0.50;;;;;;;14.62;88.98;97395.03;29395;199;63005;-68
2021/06/06 00:09:46;;;;;;;0.50;0.50;;;;;;;14.64;88.65;97389.28;29395;251;63020;-63
2021/06/06 00:10:17;;;;;;;0.47;0.47;;;;;;;14.64;88.47;97384.63;29395;206;63005;-64
2021/06/06 00:10:51;;;;;;;0.50;0.50;;;;;;;14.63;88.59;97384.94;29395;231;63009;-64
2021/06/06 00:11:28;;;;;;;0.50;0.50;;;;;;;14.62;88.87;97389.56;29395;232;63005;-64
2021/06/06 00:12:03;;;;;;;0.50;0.50;;;;;;;14.61;88.48;97381.69;29395;196;63009;-65
2021/06/06 00:12:35;;;;;;;0.50;0.50;;;;;;;14.59;88.69;97384.72;29394;248;64009;-64
2021/06/06 00:13:07;;;;;;;0.50;0.50;;;;;;;14.59;88.62;97386.66;29395;234;63004;-66
2021/06/06 00:13:39;;;;;;;0.50;0.50;;;;;;;14.60;89.11;97382.81;29395;240;63018;-66
2021/06/06 00:14:23;;;;;;;0.50;0.50;;;;;;;14.61;88.83;97385.22;29395;288;63023;-64
2021/06/06 00:14:55;;;;;;;0.50;0.50;;;;;;;14.61;89.20;97385.22;29395;202;63004;-65
2021/06/06 00:15:27;;;;;;;0.50;0.50;;;;;;;14.59;88.78;97390.19;29395;210;63009;-65
2021/06/06 00:15:58;;;;;;;0.50;0.50;;;;;;;14.57;88.68;97384.22;29395;229;63005;-64
2021/06/06 00:16:36;;;;;;;0.50;0.50;;;;;;;14.57;88.90;97384.22;29395;206;63009;-65
2021/06/06 00:17:11;;;;;;;0.50;0.50;;;;;;;14.56;89.11;97377.16;29394;203;64009;-66
2021/06/06 00:17:44;;;;;;;0.50;0.50;;;;;;;14.55;88.78;97383.75;29395;218;63009;-65
2021/06/06 00:18:18;;;;;;;0.50;0.50;;;;;;;14.54;89.14;97381.31;29395;210;63005;-64
2021/06/06 00:18:51;;;;;;;0.50;0.50;;;;;;;14.54;89.04;97387.59;29395;249;63009;-65
2021/06/06 00:19:24;;;;;;;0.50;0.50;;;;;;;14.55;89.29;97377.47;29395;227;63004;-65
2021/06/06 00:19:57;;;;;;;0.50;0.50;;;;;;;14.54;89.17;97376.66;29395;248;63009;-65
2021/06/06 00:20:29;;;;;;;0.50;0.50;;;;;;;14.58;89.18;97376.84;29394;250;64009;-66
2021/06/06 00:21:01;;;;;;;0.40;0.40;;;;;;;14.59;89.36;97379.25;29395;257;63009;-66
2021/06/06 00:21:34;;;;;;;0.50;0.50;;;;;;;14.60;89.06;97380.88;29395;222;63004;-65
2021/06/06 00:22:06;;;;;;;0.50;0.50;;;;;;;14.59;88.85;97389.38;29395;252;63008;-66
2021/06/06 00:22:39;;;;;;;0.50;0.50;;;;;;;14.58;88.93;97382.31;29395;296;63005;-65
2021/06/06 00:23:10;;;;;;;0.50;0.50;;;;;;;14.57;88.99;97386.16;29395;226;63009;-63
2021/06/06 00:23:42;;;;;;;0.50;0.50;;;;;;;14.57;89.08;97389.69;29395;205;63005;-67
2021/06/06 00:24:18;;;;;;;0.50;0.50;;;;;;;14.56;88.75;97379.06;29394;223;64013;-64
2021/06/06 00:24:49;;;;;;;0.50;0.50;;;;;;;14.55;89.09;97382.94;29394;211;64005;-65
2021/06/06 00:25:21;;;;;;;0.50;0.50;;;;;;;14.53;88.79;97375.06;29395;222;63018;-66
2021/06/06 00:25:52;;;;;;;0.50;0.50;;;;;;;14.52;88.91;97387.09;29395;209;63007;-65
2021/06/06 00:26:25;;;;;;;0.50;0.50;;;;;;;14.53;89.07;97380.50;29395;252;63009;-67
2021/06/06 00:26:57;;;;;;;0.47;0.47;;;;;;;14.54;89.25;97387.59;29395;203;63004;-66
2021/06/06 00:27:28;;;;;;;0.50;0.50;;;;;;;14.55;88.94;97382.94;29395;197;63009;-66
2021/06/06 00:27:59;;;;;;;0.50;0.50;;;;;;;14.54;89.22;97379.41;29395;202;63004;-64
2021/06/06 00:28:31;;;;;;;0.50;0.50;;;;;;;14.55;88.79;97378.28;29396;241;63023;-64
2021/06/06 00:29:03;;;;;;;0.50;0.50;;;;;;;14.56;88.66;97382.59;29396;196;63004;-65
2021/06/06 00:29:35;;;;;;;0.50;0.50;;;;;;;14.57;88.83;97384.22;29395;272;64013;-65
2021/06/06 00:30:09;;;;;;;0.50;0.50;;;;;;;14.57;88.82;97380.69;29396;253;63005;-65
2021/06/06 00:30:40;;;;;;;0.50;0.50;;;;;;;14.59;88.45;97379.25;29396;203;63009;-67
2021/06/06 00:31:12;;;;;;;0.43;0.43;;;;;;;14.60;88.44;97378.16;29396;204;63015;-66
2021/06/06 00:31:46;;;;;;;0.50;0.50;;;;;;;14.66;87.94;97387.03;29395;237;64014;-65
2021/06/06 00:32:17;;;;;;;0.50;0.50;;;;;;;14.66;88.03;97374.19;29396;216;63005;-66
2021/06/06 00:32:48;;;;;;;0.50;0.50;;;;;;;14.65;87.92;97372.59;29396;264;63009;-67
2021/06/06 00:33:19;;;;;;;0.50;0.50;;;;;;;14.63;87.80;97380.28;29396;281;63005;-67
2021/06/06 00:33:51;;;;;;;0.50;0.50;;;;;;;14.65;87.71;97378.03;29396;262;63009;-70
2021/06/06 00:34:24;;;;;;;0.50;0.50;;;;;;;14.67;87.77;97370.34;29395;202;64009;-66
2021/06/06 00:34:55;;;;;;;0.50;0.50;;;;;;;14.66;87.35;97378.84;29396;198;63009;-66
2021/06/06 00:35:27;;;;;;;0.50;0.50;;;;;;;14.65;87.65;97374.50;29396;241;63004;-67
2021/06/06 00:35:59;;;;;;;0.50;0.50;;;;;;;14.62;87.74;97373.19;29396;226;63009;-66
2021/06/06 00:36:30;;;;;;;0.50;0.50;;;;;;;14.62;87.87;97372.37;29396;197;63004;-66
2021/06/06 00:37:02;;;;;;;0.50;0.50;;;;;;;14.61;87.94;97374.31;29396;201;63019;-65
2021/06/06 00:37:33;;;;;;;0.50;0.50;;;;;;;14.59;88.21;97376.53;29396;218;63004;-65
2021/06/06 00:38:05;;;;;;;0.50;0.50;;;;;;;14.59;87.96;97379.25;29396;299;63009;-67
2021/06/06 00:38:36;;;;;;;0.50;0.50;;;;;;;14.57;88.04;97370.56;29396;222;63015;-67
2021/06/06 00:39:08;;;;;;;0.50;0.50;;;;;;;14.62;88.10;97367.72;29395;214;64014;-65
2021/06/06 00:39:40;;;;;;;0.50;0.50;;;;;;;14.62;87.59;97373.19;29395;219;64009;-66
2021/06/06 00:40:14;;;;;;;0.45;0.45;;;;;;;14.60;87.92;97375.41;29396;202;63009;-66
2021/06/06 00:40:46;;;;;;;0.50;0.50;;;;;;;14.58;87.97;97377.66;29396;198;63005;-65
2021/06/06 00:41:20;;;;;;;0.50;0.50;;;;;;;14.57;87.73;97376.03;29396;271;63009;-67
2021/06/06 00:41:53;;;;;;;0.50;0.50;;;;;;;14.54;88.19;97373.94;29396;204;63004;-67
2021/06/06 00:42:28;;;;;;;0.50;0.50;;;;;;;14.58;88.12;97376.84;29396;202;63009;-65
2021/06/06 00:43:00;;;;;;;0.50;0.50;;;;;;;14.56;87.95;97379.06;29396;208;63015;-66
2021/06/06 00:43:31;;;;;;;0.50;0.50;;;;;;;14.56;nan;97377.16;29396;238;63008;-65
2021/06/06 00:44:04;;;;;;;0.50;0.50;;;;;;;14.57;88.17;97377.94;29396;247;63004;-66
2021/06/06 00:44:35;;;;;;;0.50;0.50;;;;;;;14.56;88.10;97379.87;29395;267;64013;-65
2021/06/06 00:45:16;;;;;;;0.47;0.47;;;;;;;14.54;88.09;97381.31;29396;234;63004;-66
2021/06/06 00:45:47;;;;;;;0.50;0.50;;;;;;;14.51;88.18;97369.09;29396;230;63009;-67
2021/06/06 00:46:23;;;;;;;0.50;0.50;;;;;;;14.53;88.37;97371.50;29396;195;63005;-66
2021/06/06 00:46:57;;;;;;;0.50;0.50;;;;;;;14.57;88.21;97380.69;29396;217;63009;-64
2021/06/06 00:47:29;;;;;;;0.50;0.50;;;;;;;14.56;88.02;97381.78;29396;240;63005;-67
2021/06/06 00:48:01;;;;;;;0.50;0.50;;;;;;;14.59;88.03;97376.53;29396;271;63009;-66
2021/06/06 00:48:32;;;;;;;0.50;0.50;;;;;;;14.58;87.83;97383.12;29396;197;63004;-68
2021/06/06 00:49:05;;;;;;;0.50;0.50;;;;;;;14.56;87.92;97374.41;29396;226;63009;-66
2021/06/06 00:49:37;;;;;;;0.50;0.50;;;;;;;14.55;87.78;97381.03;29395;202;64009;-65
2021/06/06 00:50:17;;;;;;;0.50;0.50;;;;;;;14.56;87.93;97377.16;29396;233;63009;-66
2021/06/06 00:50:51;;;;;;;0.50;0.50;;;;;;;14.61;87.28;97377.03;29418;253;63011;-68
2021/06/06 00:51:55;;;;;;;0.50;0.50;;;;;;;14.62;87.37;97378.66;29396;253;63008;-66
2021/06/06 00:52:32;;;;;;;0.50;0.50;;;;;;;14.56;88.38;97374.41;29395;243;64009;-65
2021/06/06 00:53:11;;;;;;;0.50;0.50;;;;;;;14.50;88.78;97372.94;29396;259;63009;-66
2021/06/06 00:53:52;;;;;;;0.50;0.50;;;;;;;14.46;88.71;97371.94;29396;223;63009;-68
2021/06/06 00:54:34;;;;;;;0.50;0.50;;;;;;;14.40;89.18;97376.66;29418;236;63009;-67
2021/06/06 00:55:09;;;;;;;0.50;0.50;;;;;;;14.42;89.08;97373.66;29396;208;63005;-66
2021/06/06 00:55:40;;;;;;;0.50;0.50;;;;;;;14.40;89.17;97376.66;29395;200;64013;-65
2021/06/06 00:56:17;;;;;;;0.50;0.50;;;;;;;14.39;89.35;97375.03;29396;214;63004;-67
2021/06/06 00:56:52;;;;;;;0.50;0.50;;;;;;;14.37;89.84;97374.53;29396;199;63009;-67
2021/06/06 00:57:32;;;;;;;0.50;0.50;;;;;;;14.37;89.88;97376.44;29396;199;63004;-67
2021/06/06 00:58:08;;;;;;;0.50;0.50;;;;;;;14.39;90.13;97374.22;29396;209;63009;-68
2021/06/06 00:58:42;;;;;;;0.50;0.50;;;;;;;14.40;89.66;97381.31;29396;241;63004;-66
2021/06/06 00:59:17;;;;;;;0.50;0.50;;;;;;;14.42;89.57;97379.09;29396;232;63012;-69
2021/06/06 00:59:54;;;;;;;0.50;0.50;;;;;;;14.39;89.08;97377.75;29396;200;63005;-67
2021/06/06 01:00:35;;;;;;;0.50;0.50;;;;;;;14.37;89.26;97380.00;29395;218;64014;-67
2021/06/06 01:01:06;;;;;;;0.50;0.50;;;;;;;14.35;89.37;97384.13;29418;220;63009;-65
2021/06/06 01:01:38;;;;;;;0.65;0.65;;;;;;;14.36;89.79;97381.09;29396;222;63009;-65
2021/06/06 01:02:09;;;;;;;0.50;0.50;;;;;;;14.38;89.68;97380.78;29396;224;63005;-67
2021/06/06 01:02:42;;;;;;;0.50;0.50;;;;;;;14.38;89.62;97378.87;29396;318;63014;-68
2021/06/06 01:03:15;;;;;;;0.50;0.50;;;;;;;14.38;89.40;97380.78;29396;206;63005;-65
2021/06/06 01:03:47;;;;;;;0.50;0.50;;;;;;;14.38;89.36;97378.06;29396;199;63009;-67
2021/06/06 01:04:19;;;;;;;0.50;0.50;;;;;;;14.37;89.78;97379.19;29396;255;63004;-68
2021/06/06 01:04:50;;;;;;;0.50;0.50;;;;;;;14.38;89.78;97383.53;29396;244;63009;-67
2021/06/06 01:05:46;;;;;;;0.50;0.50;;;;;;;14.41;89.59;97383.75;29396;239;63004;-64
2021/06/06 01:06:26;;;;;;;0.50;0.50;;;;;;;14.39;89.58;97374.22;29395;221;64013;-67
2021/06/06 01:06:57;;;;;;;0.50;0.50;;;;;;;14.38;89.54;97383.53;29396;213;63004;-66
2021/06/06 01:07:28;;;;;;;0.50;0.50;;;;;;;14.39;89.79;97379.69;29396;232;63009;-65
2021/06/06 01:08:08;;;;;;;0.50;0.50;;;;;;;14.37;89.49;97381.91;29396;273;63005;-65
2021/06/06 01:08:40;;;;;;;0.50;0.50;;;;;;;14.37;89.56;97376.44;29418;209;63009;-66
2021/06/06 01:09:13;;;;;;;0.50;0.50;;;;;;;14.36;89.38;97377.56;29396;241;63000;-67
2021/06/06 01:09:45;;;;;;;0.50;0.50;;;;;;;14.34;89.37;97377.88;29396;246;63009;-67
2021/06/06 01:10:16;;;;;;;0.50;0.50;;;;;;;14.34;89.02;97382.53;29395;247;64009;-67
2021/06/06 01:10:53;;;;;;;0.50;0.50;;;;;;;14.39;89.21;97385.16;29396;202;63009;-68
2021/06/06 01:12:02;;;;;;;0.50;0.50;;;;;;;14.41;88.66;97372.03;29395;322;64009;-65
2021/06/06 01:12:37;;;;;;;0.50;0.50;;;;;;;14.41;89.12;97377.50;29397;225;63009;-67
2021/06/06 01:13:41;;;;;;;0.50;0.50;;;;;;;14.41;88.91;97382.94;29397;223;63004;-67
2021/06/06 01:14:42;;;;;;;0.40;0.40;;;;;;;14.40;88.37;97378.56;29397;259;63008;-67
2021/06/06 01:15:35;;;;;;;0.50;0.50;;;;;;;14.38;88.35;97380.78;29397;236;63005;-66
2021/06/06 01:16:12;;;;;;;0.50;0.50;;;;;;;14.37;88.71;97381.91;29396;236;64014;-65
2021/06/06 01:17:02;;;;;;;0.50;0.50;;;;;;;14.34;88.66;97371.59;29397;219;63005;-66
2021/06/06 01:17:52;;;;;;;0.50;0.50;;;;;;;14.31;88.90;97375.75;29397;280;63009;-67
2021/06/06 01:18:33;;;;;;;0.50;0.50;;;;;;;14.30;88.73;97376.03;29397;225;63005;-65
2021/06/06 01:19:12;;;;;;;0.50;0.50;;;;;;;14.31;89.10;97377.66;29419;196;63009;-66
2021/06/06 01:20:13;;;;;;;0.50;0.50;;;;;;;14.29;88.75;97377.97;29397;203;63004;-65
2021/06/06 01:21:12;;;;;;;0.50;0.50;;;;;;;14.28;88.87;97373.63;29397;204;63012;-68
2021/06/06 01:22:23;;;;;;;0.50;0.50;;;;;;;14.27;88.88;97372.00;29396;268;64008;-67
2021/06/06 01:23:05;;;;;;;0.50;0.50;;;;;;;14.31;89.07;97373.00;29397;218;63009;-66
2021/06/06 01:24:37;;;;;;;0.50;0.50;;;;;;;14.27;88.65;97372.00;29397;238;63005;-65
2021/06/06 01:25:17;;;;;;;0.50;0.50;;;;;;;14.32;88.93;97373.81;29397;214;63009;-67
2021/06/06 01:25:53;;;;;;;0.50;0.50;;;;;;;14.33;88.36;97372.72;29396;214;64009;-64
2021/06/06 01:26:47;;;;;;;0.50;0.50;;;;;;;14.34;88.21;97366.94;29397;214;63009;-69
2021/06/06 01:27:26;;;;;;;0.50;0.50;;;;;;;14.36;88.29;97374.84;29396;216;63000;-63
2021/06/06 01:28:10;;;;;;;0.50;0.50;;;;;;;14.35;88.15;97368.56;29396;202;63009;-66
2021/06/06 01:29:06;;;;;;;0.50;0.50;;;;;;;14.38;88.05;97378.06;29396;242;63004;-63
2021/06/06 01:30:18;;;;;;;0.50;0.50;;;;;;;14.37;87.89;97371.00;29396;232;63009;-67
2021/06/06 01:30:55;;;;;;;0.50;0.50;;;;;;;14.34;87.82;97372.41;29395;235;64009;-68
2021/06/06 01:31:28;;;;;;;0.50;0.50;;;;;;;14.33;88.00;97369.97;29396;203;63009;-68
2021/06/06 01:32:13;;;;;;;0.50;0.50;;;;;;;14.32;87.83;97369.19;29396;202;63005;-67
2021/06/06 01:33:28;;;;;;;0.50;0.50;;;;;;;14.33;88.51;97359.06;29396;271;63009;-66
2021/06/06 01:34:03;;;;;;;0.50;0.50;;;;;;;14.34;88.18;97366.13;29418;202;63004;-68
2021/06/06 01:34:36;;;;;;;0.50;0.50;;;;;;;14.34;88.86;97371.59;29396;224;63026;-67
2021/06/06 01:35:25;;;;;;;0.50;0.50;;;;;;;14.29;88.38;97361.59;29396;214;63004;-66
2021/06/06 01:36:39;;;;;;;0.50;0.50;;;;;;;14.27;88.85;97365.75;29396;213;63013;-66
2021/06/06 01:37:17;;;;;;;0.50;0.50;;;;;;;14.33;88.89;97359.06;29396;282;63005;-66
2021/06/06 01:37:55;;;;;;;0.50;0.50;;;;;;;14.35;88.64;97367.75;29395;203;64014;-66
2021/06/06 01:38:58;;;;;;;0.50;0.50;;;;;;;14.34;88.43;97358.75;29396;202;63005;-66
2021/06/06 01:40:01;;;;;;;0.50;0.50;;;;;;;14.32;88.60;97362.91;29396;228;63009;-67
2021/06/06 01:40:38;;;;;;;0.50;0.50;;;;;;;14.30;88.53;97351.47;29396;217;63005;-67
2021/06/06 01:41:13;;;;;;;0.50;0.50;;;;;;;14.28;88.90;97359.97;29395;202;64013;-67
2021/06/06 01:41:49;;;;;;;0.50;0.50;;;;;;;14.28;88.73;97359.16;29396;259;63004;-66
2021/06/06 01:42:28;;;;;;;0.50;0.50;;;;;;;14.28;88.77;97359.16;29396;209;63009;-67
2021/06/06 01:43:04;;;;;;;0.50;0.50;;;;;;;14.26;88.68;97358.66;29395;204;64009;-66
2021/06/06 01:43:40;;;;;;;0.50;0.50;;;;;;;14.25;88.68;97365.22;29395;295;64013;-66
2021/06/06 01:44:15;;;;;;;0.50;0.50;;;;;;;14.24;88.69;97356.25;29396;266;63004;-66
2021/06/06 01:44:52;;;;;;;0.50;0.50;;;;;;;14.28;89.06;97356.44;29396;243;63009;-69
2021/06/06 01:45:31;;;;;;;0.50;0.50;;;;;;;14.29;88.72;97356.13;29396;291;63005;-68
2021/06/06 01:46:07;;;;;;;0.50;0.50;;;;;;;14.30;88.55;97359.66;29396;250;63009;-67
2021/06/06 01:46:53;;;;;;;0.50;0.50;;;;;;;14.30;88.42;97354.22;29396;204;63000;-70
2021/06/06 01:47:28;;;;;;;0.50;0.50;;;;;;;14.32;88.75;97360.19;29396;208;63009;-65
2021/06/06 01:48:04;;;;;;;0.50;0.50;;;;;;;14.34;88.42;97366.94;29396;218;63007;-63
2021/06/06 01:48:39;;;;;;;0.50;0.50;;;;;;;14.37;88.28;97360.06;29395;244;64013;-66
2021/06/06 01:49:14;;;;;;;0.50;0.50;;;;;;;14.36;87.67;97353.81;29396;210;63004;-68
2021/06/06 01:49:51;;;;;;;0.50;0.50;;;;;;;14.34;87.96;97360.69;29396;211;63009;-66
2021/06/06 01:50:29;;;;;;;0.50;0.50;;;;;;;14.32;88.38;97360.97;29396;220;63004;-68
2021/06/06 01:51:06;;;;;;;0.50;0.50;;;;;;;14.29;88.92;97358.06;29396;265;63008;-68
2021/06/06 01:51:43;;;;;;;0.50;0.50;;;;;;;14.26;88.71;97355.94;29396;198;63004;-67
2021/06/06 01:52:15;;;;;;;0.50;0.50;;;;;;;14.27;89.11;97360.28;29396;231;63008;-65
2021/06/06 01:52:49;;;;;;;0.50;0.50;;;;;;;14.25;89.11;97362.50;29396;250;63005;-64
2021/06/06 01:53:21;;;;;;;0.50;0.50;;;;;;;14.26;89.15;97358.66;29396;224;63009;-66
2021/06/06 01:53:54;;;;;;;0.50;0.50;;;;;;;14.25;88.77;97357.84;29395;253;64009;-67
2021/06/06 01:54:29;;;;;;;0.50;0.50;;;;;;;14.25;88.95;97357.03;29396;203;63011;-69
2021/06/06 01:55:06;;;;;;;0.50;0.50;;;;;;;14.24;88.92;97355.44;29396;214;63005;-67
2021/06/06 01:55:47;;;;;;;0.50;0.50;;;;;;;14.24;89.18;97355.44;29396;221;63024;-67
2021/06/06 01:56:26;;;;;;;0.45;0.45;;;;;;;14.24;88.88;97358.16;29418;197;63004;-68
2021/06/06 01:56:58;;;;;;;0.50;0.50;;;;;;;14.24;89.24;97361.69;29396;248;63024;-70
2021/06/06 01:57:31;;;;;;;0.50;0.50;;;;;;;14.25;88.59;97363.31;29396;205;63007;-64
2021/06/06 01:58:07;;;;;;;0.50;0.50;;;;;;;14.26;88.47;97364.13;29396;244;63023;-67
2021/06/06 01:58:38;;;;;;;0.47;0.47;;;;;;;14.24;88.11;97358.16;29396;288;63004;-67
2021/06/06 01:59:16;;;;;;;0.50;0.50;;;;;;;14.26;88.62;97358.66;29396;220;63014;-66
2021/06/06 01:59:51;;;;;;;0.50;0.50;;;;;;;14.28;88.15;97357.25;29396;191;63005;-67
2021/06/06 02:00:52;;;;;;;0.50;0.50;;;;;;;14.28;88.36;97367.34;29396;213;63018;-67
2021/06/06 02:01:25;;;;;;;0.50;0.50;;;;;;;14.24;88.23;97355.44;29396;230;63005;-66
2021/06/06 02:01:56;;;;;;;0.50;0.50;;;;;;;14.21;88.45;97351.38;29396;202;63009;-67
2021/06/06 02:02:28;;;;;;;0.50;0.50;;;;;;;14.20;88.25;97357.19;29396;229;63008;-68
2021/06/06 02:02:59;;;;;;;0.50;0.50;;;;;;;14.24;88.82;97349.97;29396;237;63009;-63
2021/06/06 02:03:31;;;;;;;0.50;0.50;;;;;;;14.24;88.37;97356.25;29396;258;63004;-67
2021/06/06 02:04:04;;;;;;;0.40;0.40;;;;;;;14.25;88.48;97351.59;29395;212;64013;-66
2021/06/06 02:04:36;;;;;;;0.50;0.50;;;;;;;14.23;88.87;97359.28;29396;215;63004;-68
2021/06/06 02:05:15;;;;;;;0.50;0.50;;;;;;;14.21;88.63;97361.50;29396;241;63013;-68
2021/06/06 02:05:49;;;;;;;0.50;0.50;;;;;;;14.21;88.56;97356.03;29396;214;63004;-67
2021/06/06 02:06:26;;;;;;;0.50;0.50;;;;;;;14.20;88.90;97354.44;29396;221;63008;-66
2021/06/06 02:07:07;;;;;;;0.50;0.50;;;;;;;14.21;88.73;97353.31;29396;204;63005;-64
2021/06/06 02:07:41;;;;;;;0.50;0.50;;;;;;;14.20;88.77;97355.25;29396;205;63009;-67
2021/06/06 02:08:17;;;;;;;0.50;0.50;;;;;;;14.18;89.06;97352.03;29396;205;63005;-70
2021/06/06 02:08:49;;;;;;;0.50;0.50;;;;;;;14.17;89.15;97355.87;29396;263;63009;-69
2021/06/06 02:09:24;;;;;;;0.50;0.50;;;;;;;14.17;89.01;97361.31;29395;221;64009;-69
2021/06/06 02:10:47;;;;;;;0.50;0.50;;;;;;;14.16;89.11;97353.44;29396;236;63009;-67
2021/06/06 02:11:28;;;;;;;0.50;0.50;;;;;;;14.15;89.32;97357.28;29418;198;63004;-68
2021/06/06 02:12:04;;;;;;;0.50;0.50;;;;;;;14.13;89.82;97351.31;29396;231;63004;-68
2021/06/06 02:12:39;;;;;;;0.50;0.50;;;;;;;14.16;89.55;97348.78;29396;198;63004;-64
2021/06/06 02:13:17;;;;;;;0.50;0.50;;;;;;;14.20;88.94;97351.72;29396;215;63009;-66
2021/06/06 02:14:01;;;;;;;0.50;0.50;;;;;;;14.26;88.57;97353.19;29396;272;63011;-67
2021/06/06 02:14:40;;;;;;;0.50;0.50;;;;;;;14.24;88.49;97350.78;29395;209;64014;-68
2021/06/06 02:15:20;;;;;;;0.50;0.50;;;;;;;14.23;88.57;97348.34;29397;198;63005;-67
2021/06/06 02:15:55;;;;;;;0.50;0.50;;;;;;;14.20;88.58;97354.44;29419;224;63009;-67
2021/06/06 02:16:32;;;;;;;0.50;0.50;;;;;;;14.19;88.68;97352.81;29397;216;63009;-64
2021/06/06 02:17:08;;;;;;;0.50;0.50;;;;;;;14.17;89.25;97355.06;29397;225;63009;-67
2021/06/06 02:17:40;;;;;;;0.50;0.50;;;;;;;14.15;89.31;97351.81;29396;248;63005;-68
2021/06/06 02:18:11;;;;;;;0.50;0.50;;;;;;;14.13;89.55;97359.50;29397;204;63009;-67
2021/06/06 02:18:43;;;;;;;0.50;0.50;;;;;;;14.11;89.19;97350.81;29395;203;63014;-68
2021/06/06 02:19:14;;;;;;;0.50;0.50;;;;;;;14.11;89.63;97357.06;29395;229;63009;-68
2021/06/06 02:19:47;;;;;;;0.50;0.50;;;;;;;14.12;89.35;97360.59;29394;265;64009;-68
2021/06/06 02:20:21;;;;;;;0.50;0.50;;;;;;;14.12;89.55;97353.22;29395;251;63009;-68
2021/06/06 02:20:53;;;;;;;0.50;0.50;;;;;;;14.13;89.37;97348.59;29395;198;63004;-66
2021/06/06 02:21:26;;;;;;;0.50;0.50;;;;;;;14.14;89.56;97351.00;29395;236;63008;-70
2021/06/06 02:22:03;;;;;;;0.50;0.50;;;;;;;14.14;89.27;97356.47;29395;219;63005;-68
2021/06/06 02:22:38;;;;;;;0.50;0.50;;;;;;;14.12;89.34;97347.78;29395;271;63009;-67
2021/06/06 02:23:12;;;;;;;0.50;0.50;;;;;;;14.12;89.25;97349.69;29395;222;63008;-69
2021/06/06 02:23:46;;;;;;;0.50;0.50;;;;;;;14.11;89.14;97350.81;29395;216;63009;-68
2021/06/06 02:24:17;;;;;;;0.50;0.50;;;;;;;14.11;88.99;97350.81;29395;244;63005;-67
2021/06/06 02:24:49;;;;;;;0.50;0.50;;;;;;;14.11;89.53;97353.53;29393;316;64013;-69
2021/06/06 02:25:22;;;;;;;0.50;0.50;;;;;;;14.11;89.22;97361.72;29395;202;63005;-68
2021/06/06 02:26:02;;;;;;;0.50;0.50;;;;;;;14.11;89.45;97350.81;29395;251;63009;-70
2021/06/06 02:27:15;;;;;;;0.50;0.50;;;;;;;14.08;89.57;97347.56;29417;198;63004;-70
2021/06/06 02:27:57;;;;;;;0.50;0.50;;;;;;;14.06;89.99;97355.25;29395;234;63004;-67
2021/06/06 02:28:47;;;;;;;0.50;0.50;;;;;;;14.05;89.96;97352.81;29395;210;63000;-68
2021/06/06 02:30:00;;;;;;;0.50;0.50;;;;;;;14.04;90.04;97351.22;29417;281;63005;-67
2021/06/06 02:30:50;;;;;;;0.50;0.50;;;;;;;14.04;89.68;97357.47;29415;218;64014;-68
2021/06/06 02:31:47;;;;;;;0.50;0.50;;;;;;;14.01;89.76;97352.62;29394;276;63005;-68
2021/06/06 02:33:06;;;;;;;0.50;0.50;;;;;;;14.02;90.04;97348.78;29395;219;63009;-63
2021/06/06 02:34:10;;;;;;;0.50;0.50;;;;;;;14.02;89.66;97348.78;29394;202;63004;-66
2021/06/06 02:35:15;;;;;;;0.50;0.50;;;;;;;14.02;89.87;97351.50;29395;199;63017;-68
2021/06/06 02:36:00;;;;;;;0.50;0.50;;;;;;;14.06;89.44;97349.78;29393;249;64009;-65
2021/06/06 02:36:34;;;;;;;0.50;0.50;;;;;;;14.06;89.48;97344.34;29395;226;63008;-57
2021/06/06 02:37:21;;;;;;;0.50;0.50;;;;;;;14.08;89.16;97353.03;29395;233;63005;-67
2021/06/06 02:38:06;;;;;;;0.50;0.50;;;;;;;14.03;89.25;97347.66;29395;221;63009;-70
2021/06/06 02:38:49;;;;;;;0.50;0.50;;;;;;;14.01;89.12;97347.16;29395;227;63005;-68
2021/06/06 02:39:34;;;;;;;0.50;0.50;;;;;;;14.01;89.06;97347.16;29395;329;63009;-66
2021/06/06 02:40:14;;;;;;;0.50;0.50;;;;;;;14.04;89.28;97346.56;29393;233;64009;-67
2021/06/06 02:40:54;;;;;;;0.50;0.50;;;;;;;14.05;89.35;97342.72;29395;237;63009;-67
2021/06/06 02:41:31;;;;;;;0.50;0.50;;;;;;;14.06;89.47;97338.88;29395;272;63004;-68
2021/06/06 02:42:17;;;;;;;0.50;0.50;;;;;;;14.05;88.86;97342.72;29395;213;63009;-68
2021/06/06 02:42:51;;;;;;;0.50;0.50;;;;;;;14.04;89.20;97341.09;29395;217;63004;-67
2021/06/06 02:43:32;;;;;;;0.50;0.50;;;;;;;14.04;89.17;97346.56;29395;202;63009;-65
2021/06/06 02:44:22;;;;;;;0.50;0.50;;;;;;;14.15;88.64;97335.44;29417;208;63004;-68
2021/06/06 02:45:07;;;;;;;0.50;0.50;;;;;;;14.19;87.99;97336.47;29395;223;63009;-68
2021/06/06 02:45:39;;;;;;;0.50;0.50;;;;;;;14.16;88.26;97343.31;29393;244;64009;-63
2021/06/06 02:46:13;;;;;;;0.50;0.50;;;;;;;14.14;88.37;97339.28;29395;335;63009;-69
2021/06/06 02:46:47;;;;;;;0.50;0.50;;;;;;;14.11;88.34;97340.69;29395;216;63005;-68
2021/06/06 02:47:23;;;;;;;0.50;0.50;;;;;;;14.09;88.57;97342.94;29395;224;63009;-69
2021/06/06 02:48:05;;;;;;;0.50;0.50;;;;;;;14.07;88.82;97342.41;29395;244;63005;-69
2021/06/06 02:48:43;;;;;;;0.50;0.50;;;;;;;14.03;89.05;97344.94;29395;243;63009;-70
2021/06/06 02:49:29;;;;;;;0.50;0.50;;;;;;;14.02;89.08;97342.50;29395;257;63004;-71
2021/06/06 02:50:08;;;;;;;0.50;0.50;;;;;;;14.00;89.41;97340.09;29395;245;63009;-69
2021/06/06 02:50:42;;;;;;;0.50;0.50;;;;;;;13.99;89.53;97345.84;29393;209;64009;-67
2021/06/06 02:51:18;;;;;;;0.50;0.50;;;;;;;13.99;89.49;97349.37;29395;210;63008;-62
2021/06/06 02:51:59;;;;;;;0.50;0.50;;;;;;;13.99;89.62;97343.94;29395;263;63004;-70
2021/06/06 02:52:41;;;;;;;0.50;0.50;;;;;;;13.98;90.19;97345.03;29395;258;63009;-69
2021/06/06 02:53:21;;;;;;;;;;;;;;;13.99;89.79;97349.37;29996;982;6000;-67
2021/06/06 02:54:05;;;;;;;0.50;0.50;;;;;;;13.99;90.48;97348.56;29400;232;63005;-70
2021/06/06 02:54:41;;;;;;;2.08;2.08;;;;;;;13.97;90.36;97337.16;29395;225;63009;-66
2021/06/06 02:55:20;;;;;;;0.50;0.50;;;;;;;13.96;90.31;97341.00;29395;213;63004;-69
2021/06/06 02:55:59;;;;;;;0.50;0.50;;;;;;;13.96;90.61;97343.72;29394;202;64013;-63
2021/06/06 02:56:34;;;;;;;0.50;0.50;;;;;;;13.94;90.71;97346.75;29395;242;63004;-70
2021/06/06 02:57:10;;;;;;;0.50;0.50;;;;;;;13.99;90.58;97343.13;29395;212;63009;-61
2021/06/06 02:57:51;;;;;;;0.50;0.50;;;;;;;13.99;90.30;97352.12;29395;313;63003;-67
2021/06/06 02:58:28;;;;;;;0.50;0.50;;;;;;;13.97;90.01;97340.69;29417;260;63008;-67
2021/06/06 02:59:16;;;;;;;0.50;0.50;;;;;;;13.96;90.17;97344.53;29395;218;63004;-67
2021/06/06 02:59:55;;;;;;;0.50;0.50;;;;;;;13.95;89.79;97347.56;29395;296;63019;-67
2021/06/06 03:00:41;;;;;;;0.50;0.50;;;;;;;13.96;89.73;97349.19;29395;215;63005;-68
2021/06/06 03:01:24;;;;;;;0.50;0.50;;;;;;;13.95;90.02;97342.91;29394;208;64013;-69
2021/06/06 03:02:00;;;;;;;0.50;0.50;;;;;;;13.93;89.97;97345.12;29395;249;63005;-71
2021/06/06 03:02:38;;;;;;;0.50;0.50;;;;;;;13.94;90.12;97341.31;29395;265;63009;-67
2021/06/06 03:03:22;;;;;;;0.50;0.50;;;;;;;13.94;90.03;97349.47;29395;197;63004;-68